Nearby METAR Reports

 

KMTN - Baltimore/Martin, Maryland, USA
Distance from station: SSE 8mi, 13km
Updated: Fri, 27-Feb-2015 10:45am EST
Mostly cloudy
Mostly cloudy
 Wind from NW
Wind: NW 9 mph , 15 km/h
Temperature: 28°F , -2°C
Wind Chill: 19°F , -7°C
Dew Point: 18°F , -8°C
Humidity: 64%
Barometer: 30.44 inHg , 1030.8 hPa
Clouds: Mostly cloudy
Visibility: 10 miles , 16 km
Cloud details: Mostly cloudy 4000 ft
2015/02/27 15:45 KMTN 271545Z 31008KT 10SM BKN040 M02/M08 A3044
KDMH - Baltimore/Dwntwn, Maryland, USA
Distance from station: SW 12mi, 19km
Updated: Fri, 27-Feb-2015 10:54am EST

 
Temperature: 27°F , -3°C
Dew Point: 14°F , -10°C
Humidity: 59%
Barometer: 30.43 inHg , 1030.5 hPa
2015/02/27 15:54 KDMH 271554Z AUTO M03/M10 A3043 RMK AO1 SLP304 T10281100
 
KBWI - Balto/Wash Intl, Maryland, USA
Distance from station: SSW 20mi, 33km
Updated: Fri, 27-Feb-2015 11:37am EST
Mostly cloudy
Mostly cloudy
 Wind from varies
Wind: varies 5 mph , 7 km/h
Temperature: 28°F , -2°C
Wind Chill: 22°F , -6°C
Dew Point: 14°F , -10°C
Humidity: 55%
Barometer: 30.43 inHg , 1030.5 hPa
Clouds: Mostly cloudy
Visibility: 10 miles , 16 km
Cloud details: Partly cloudy 3100 ft
Mostly cloudy 6500 ft
Mostly cloudy 16000 ft
2015/02/27 16:37 KBWI 271637Z VRB04KT 10SM SCT031 BKN065 BKN160 M02/M10 A3043 RMK AO2
KDMW - Carroll Cnty, Maryland, USA
Distance from station: WNW 30mi, 48km
Updated: Fri, 27-Feb-2015 11:25am EST
Clear
Clear
 Wind from NNW
Wind: NNW 7 mph , 11 km/h
Temperature: 21°F , -6°C
Wind Chill: 12°F , -11°C
Dew Point: 9°F , -13°C
Humidity: 58%
Barometer: 30.41 inHg , 1029.8 hPa
Clouds: Clear
Visibility: 10 miles , 16 km
2015/02/27 16:25 KDMW 271625Z AUTO 34006KT 10SM CLR M06/M13 A3041 RMK AO2
 
KNAK - Annapolis/Naval, Maryland, USA
Distance from station: S 30mi, 48km
Updated: Fri, 27-Feb-2015 11:02am EST
Haze, Overcast
Haze, Overcast
 Wind from NNE
Wind: NNE 8 mph , 13 km/h
Temperature: 28°F , -2°C
Wind Chill: 20°F , -7°C
Dew Point: 21°F , -6°C
Humidity: 74%
Barometer: 30.42 inHg , 1030.1 hPa
Summary: Haze
Clouds: Overcast
Visibility: 4 miles , 6 km
Cloud details: Few Clouds 1800 ft
Overcast 3300 ft
2015/02/27 16:02 KNAK 271602Z AUTO 02007KT 4SM HZ FEW018 OVC033 M02/M06 A3042 RMK AO2 T10221061
KW29 - Stevensville, Maryland, USA
Distance from station: SSE 31mi, 50km
Updated: Fri, 27-Feb-2015 11:27am EST

 Wind from N
Wind: N 10 mph , 17 km/h
Temperature: 30°F , -1°C
Wind Chill: 21°F , -6°C
Dew Point: 19°F , -7°C
Humidity: 64%
Barometer: 30.43 inHg , 1030.5 hPa
Visibility: 10 miles , 16 km
2015/02/27 16:27 KW29 271627Z AUTO 36009KT 10SM M01/M07 A3043 RMK AO1
 
KCGS - College Park, Maryland, USA
Distance from station: SW 38mi, 61km
Updated: Fri, 27-Feb-2015 11:25am EST
Partly cloudy
Partly cloudy
 Wind from WNW
Wind: WNW 8 mph , 13 km/h
Temperature: 32°F , 0°C
Wind Chill: 25°F , -4°C
Dew Point: 16°F , -9°C
Humidity: 51%
Barometer: 30.43 inHg , 1030.5 hPa
Clouds: Partly cloudy
Visibility: 10 miles , 16 km
Cloud details: Partly cloudy 3500 ft
2015/02/27 16:25 KCGS 271625Z AUTO 29007KT 10SM SCT035 00/M09 A3043 RMK AO1
KGAI - Gaithersburg, Maryland, USA
Distance from station: WSW 40mi, 65km
Updated: Fri, 27-Feb-2015 11:35am EST
Clear
Clear
 Wind from N
Wind: N 5 mph , 7 km/h
Temperature: 25°F , -4°C
Wind Chill: 19°F , -7°C
Dew Point: 10°F , -12°C
Humidity: 54%
Barometer: 30.45 inHg , 1031.2 hPa
Clouds: Clear
Visibility: 10 miles , 16 km
2015/02/27 16:35 KGAI 271635Z AUTO 35004KT 10SM CLR M04/M12 A3045 RMK AO1
 
KTHV - York, Pennsylvania, USA
Distance from station: NNW 40mi, 65km
Updated: Fri, 27-Feb-2015 10:53am EST
Clear
Clear
 Wind from NW
Wind: NW 10 mph , 17 km/h
Temperature: 21°F , -6°C
Wind Chill: 10°F , -12°C
Dew Point: 7°F , -14°C
Humidity: 54%
Barometer: 30.42 inHg , 1030.1 hPa
Clouds: Clear
Visibility: 10 miles , 16 km
2015/02/27 15:53 KTHV 271553Z AUTO 32009KT 10SM CLR M06/M14 A3042 RMK AO2 SLP312 T10561144
KFDK - Frederick, Maryland, USA
Distance from station: W 47mi, 75km
Updated: Fri, 27-Feb-2015 10:47am EST
Mostly cloudy
Mostly cloudy
 Wind from NE
Wind: NE 10 mph , 17 km/h
Temperature: 27°F , -3°C
Wind Chill: 18°F , -8°C
Dew Point: 12°F , -11°C
Humidity: 54%
Barometer: 30.47 inHg , 1031.8 hPa
Clouds: Mostly cloudy
Visibility: 10 miles , 16 km
Cloud details: Mostly cloudy 2500 ft
2015/02/27 15:47 KFDK 271547Z 05009KT 10SM BKN025 M03/M11 A3047
 
KESN - Easton/Newnam, Maryland, USA
Distance from station: SSE 48mi, 78km
Updated: Fri, 27-Feb-2015 9:50am EST
NOT Current
Overcast
Overcast
 Wind from calm
Wind: Calm
Temperature: 32°F , 0°C
Dew Point: 27°F , -3°C
Humidity: 80%
Barometer: 30.42 inHg , 1030.1 hPa
Clouds: Overcast
Visibility: 10 miles , 16 km
Cloud details: Partly cloudy 2000 ft
Overcast 12000 ft
2015/02/27 14:50 KESN 271450Z 00000KT 10SM SCT020 OVC120 00/M03 A3042
KDCA - Washington/Natl, Washington D.c., USA
Distance from station: SW 49mi, 79km
Updated: Fri, 27-Feb-2015 10:52am EST
Mostly cloudy
Mostly cloudy
 Wind from NW
Wind: NW 10 mph , 17 km/h
Temperature: 34°F , 1°C
Wind Chill: 26°F , -3°C
Dew Point: 12°F , -11°C
Humidity: 41%
Barometer: 30.43 inHg , 1030.5 hPa
Clouds: Mostly cloudy
Visibility: 10 miles , 16 km
Cloud details: Mostly cloudy 5500 ft
Mostly cloudy 9000 ft
2015/02/27 15:52 KDCA 271552Z 31009KT 10SM BKN055 BKN090 01/M11 A3043 RMK AO2 SLP304 T00111111
 
KLNS - Lancaster, Pennsylvania, USA
Distance from station: N 49mi, 79km
Updated: Fri, 27-Feb-2015 10:53am EST
Clear
Clear
 Wind from WNW
Wind: WNW 12 mph , 19 km/h
Temperature: 19°F , -7°C
Wind Chill: 6°F , -14°C
Dew Point: 9°F , -13°C
Humidity: 63%
Barometer: 30.42 inHg , 1030.1 hPa
Clouds: Clear
Visibility: 10 miles , 16 km
2015/02/27 15:53 KLNS 271553Z 30010KT 10SM CLR M07/M13 A3042 RMK AO2 SLP307 T10671133
KILG - Wilmington, Delaware, USA
Distance from station: ENE 50mi, 81km
Updated: Fri, 27-Feb-2015 10:51am EST
Overcast
Overcast
 Wind from NW
Wind: NW 6 mph , 9 km/h
Temperature: 25°F , -4°C
Wind Chill: 18°F , -8°C
Dew Point: 12°F , -11°C
Humidity: 59%
Barometer: 30.43 inHg , 1030.5 hPa
Clouds: Overcast
Visibility: 10 miles , 16 km
Cloud details: Overcast 3300 ft
2015/02/27 15:51 KILG 271551Z 32005KT 10SM OVC033 M04/M11 A3043 RMK AO2 SLP304 T10391106